Time;durP1;ratioP1;P1;durP2;ratioP2;P2;SDS_P1;SDS_P2;PMS_P1;PMS_P2;Temp;Humidity;BMP_temperature;BMP_pressure;BME280_temperature;BME280_humidity;BME280_pressure;Samples;Min_cycle;Max_cycle;Signal;HPM_P1;HPM_P2
2023/06/10 00:00:23;;;;;;;8.70;6.10;;;;;;;19.00;60.12;99213.91;107440;1253;66631;-40
2023/06/10 00:02:51;;;;;;;9.60;6.20;;;;;;;18.98;60.68;99211.74;107519;1258;72711;-40
2023/06/10 00:05:21;;;;;;;6.90;5.70;;;;;;;18.99;61.24;99208.60;107459;1257;60352;-39
2023/06/10 00:07:49;;;;;;;6.70;5.90;;;;;;;19.02;61.54;99208.54;107558;1253;60428;-40
2023/06/10 00:10:17;;;;;;;9.40;6.40;;;;;;;19.03;61.89;99205.30;107513;1259;73835;-40
2023/06/10 00:12:45;;;;;;;10.90;6.60;;;;;;;19.03;62.12;99204.75;107456;1259;67618;-40
2023/06/10 00:15:13;;;;;;;8.80;6.90;;;;;;;19.02;61.94;99204.46;107413;1259;72696;-39
2023/06/10 00:17:40;;;;;;;7.70;6.30;;;;;;;19.01;61.60;99198.43;107524;1258;60437;-39
2023/06/10 00:20:11;;;;;;;10.70;6.50;;;;;;;18.99;61.31;99192.27;107473;1253;60077;-39
2023/06/10 00:22:41;;;;;;;8.30;6.40;;;;;;;18.97;60.81;99198.60;107457;1253;73875;-40
2023/06/10 00:25:10;;;;;;;7.90;6.40;;;;;;;18.93;60.68;99198.80;107459;1258;67813;-39
2023/06/10 00:27:38;;;;;;;12.80;6.70;;;;;;;18.89;60.99;99198.55;107451;1259;72718;-39
2023/06/10 00:30:07;;;;;;;8.70;6.80;;;;;;;18.85;61.15;99196.27;107411;1253;60616;-39
2023/06/10 00:32:35;;;;;;;9.20;7.00;;;;;;;18.80;61.22;99189.69;107443;1253;60282;-39
2023/06/10 00:35:07;;;;;;;8.20;6.70;;;;;;;18.75;61.37;99190.24;107449;1253;73884;-39
2023/06/10 00:37:35;;;;;;;8.00;6.60;;;;;;;18.71;61.61;99196.67;107429;1254;68075;-39
2023/06/10 00:40:04;;;;;;;6.90;5.90;;;;;;;18.69;61.74;99197.57;107385;1254;73067;-39
2023/06/10 00:42:32;;;;;;;8.30;6.70;;;;;;;18.71;61.66;99197.93;107471;1259;60351;-39
2023/06/10 00:45:00;;;;;;;8.10;6.50;;;;;;;18.71;61.53;99194.79;107313;1253;60287;-39
2023/06/10 00:47:28;;;;;;;9.50;5.90;;;;;;;18.70;61.91;99197.95;107456;1254;72066;-39
2023/06/10 00:49:56;;;;;;;8.30;6.30;;;;;;;18.68;62.01;99190.85;107142;1253;66289;-38
2023/06/10 00:52:26;;;;;;;9.90;7.10;;;;;;;18.65;62.21;99194.09;107304;1254;72651;-39
2023/06/10 00:54:54;;;;;;;;;;;;;;;18.62;62.14;99192.43;107280;1254;60435;-40
2023/06/10 00:57:22;;;;;;;9.60;7.00;;;;;;;18.54;62.12;99190.20;107198;1253;59835;-39
2023/06/10 00:59:50;;;;;;;8.90;6.30;;;;;;;18.45;62.28;99191.71;107257;1253;73892;-39
2023/06/10 01:02:18;;;;;;;8.30;7.20;;;;;;;18.42;62.29;99194.05;108730;1253;67791;-39
2023/06/10 01:04:48;;;;;;;9.20;6.90;;;;;;;18.39;62.36;99190.10;107369;1253;72683;-39
2023/06/10 01:07:29;;;;;;;9.10;6.70;;;;;;;18.35;62.13;99190.06;107466;1253;60119;-39
2023/06/10 01:10:13;;;;;;;7.80;6.30;;;;;;;18.32;62.24;99193.42;107373;1253;61223;-39
2023/06/10 01:13:02;;;;;;;7.40;6.00;;;;;;;18.32;62.27;99192.70;107497;1254;73886;-39
2023/06/10 01:15:31;;;;;;;8.00;6.40;;;;;;;18.34;62.30;99195.52;107562;1256;67581;-39
2023/06/10 01:18:03;;;;;;;8.80;6.40;;;;;;;18.31;62.23;99191.77;107505;1254;72740;-39
2023/06/10 01:20:32;;;;;;;10.30;6.80;;;;;;;18.31;62.88;99199.64;107373;1259;60436;-39
2023/06/10 01:23:00;;;;;;;10.90;6.50;;;;;;;18.30;63.60;99197.05;107535;1254;60310;-39
2023/06/10 01:25:29;;;;;;;8.20;7.00;;;;;;;18.28;64.09;99199.05;107615;1254;72643;-39
2023/06/10 01:28:20;;;;;;;10.00;7.40;;;;;;;18.25;64.10;99196.41;107485;1254;68034;-39
2023/06/10 01:31:03;;;;;;;8.70;6.70;;;;;;;18.22;64.10;99193.17;107505;1254;71387;-39
2023/06/10 01:33:33;;;;;;;8.50;6.30;;;;;;;18.19;64.24;99197.52;107561;1254;61728;-39
2023/06/10 01:36:00;;;;;;;10.30;5.90;;;;;;;18.20;64.13;99196.27;107497;1254;60403;-39
2023/06/10 01:38:31;;;;;;;9.20;6.70;;;;;;;18.24;63.41;99194.15;107466;1254;74358;-39
2023/06/10 01:40:59;;;;;;;8.30;6.60;;;;;;;18.27;63.55;99196.70;107553;1254;67905;-39
2023/06/10 01:43:27;;;;;;;9.80;6.20;;;;;;;18.28;63.44;99194.89;107303;1254;71415;-39
2023/06/10 01:45:54;;;;;;;8.50;6.40;;;;;;;18.29;62.79;99194.09;107487;1254;60421;-39
2023/06/10 01:48:22;;;;;;;12.00;6.90;;;;;;;18.30;62.66;99196.42;107397;1254;60375;-39
2023/06/10 01:50:49;;;;;;;10.00;6.50;;;;;;;18.31;62.44;99199.79;107593;1254;74579;-39
2023/06/10 01:53:17;;;;;;;9.10;7.40;;;;;;;18.31;62.39;99198.53;107361;1254;67881;-39
2023/06/10 01:55:45;;;;;;;9.70;7.30;;;;;;;18.31;62.44;99196.41;107604;1254;71419;-39
2023/06/10 01:58:12;;;;;;;9.60;6.80;;;;;;;18.30;62.52;99194.85;107613;1254;60413;-39
2023/06/10 02:00:40;;;;;;;12.70;7.10;;;;;;;18.29;62.75;99191.42;107517;1258;60373;-39
2023/06/10 02:03:08;;;;;;;7.50;6.70;;;;;;;18.28;62.68;99194.80;107472;1254;73882;-39
2023/06/10 02:05:36;;;;;;;8.90;6.00;;;;;;;18.30;62.84;99192.67;107588;1254;68105;-39
2023/06/10 02:08:05;;;;;;;9.90;7.20;;;;;;;18.35;62.92;99193.68;107514;1254;71386;-39
2023/06/10 02:10:32;;;;;;;8.20;6.90;;;;;;;18.38;62.84;99193.09;107556;1258;60045;-39
2023/06/10 02:13:00;;;;;;;10.40;7.40;;;;;;;18.39;62.92;99196.75;107579;1254;59555;-39
2023/06/10 02:15:27;;;;;;;9.50;7.40;;;;;;;18.41;63.03;99198.70;107462;1254;73838;-39
2023/06/10 02:17:55;;;;;;;12.10;7.00;;;;;;;18.42;63.02;99198.21;107497;1254;66427;-39
2023/06/10 02:20:23;;;;;;;10.00;6.60;;;;;;;18.42;63.09;99203.55;107561;1254;72778;-39
2023/06/10 02:22:51;;;;;;;12.60;7.20;;;;;;;18.42;62.93;99201.50;107584;1254;60157;-39
2023/06/10 02:25:19;;;;;;;11.30;7.50;;;;;;;18.41;62.94;99204.73;107393;1254;60395;-39
2023/06/10 02:27:47;;;;;;;10.80;7.60;;;;;;;18.41;62.97;99204.19;107507;1254;73843;-39
2023/06/10 02:30:15;;;;;;;11.80;7.80;;;;;;;18.41;62.97;99208.96;107345;1259;67901;-39
2023/06/10 02:32:47;;;;;;;10.10;7.00;;;;;;;18.45;62.86;99213.38;107490;1254;71447;-39
2023/06/10 02:35:17;;;;;;;10.00;7.60;;;;;;;18.48;63.11;99218.17;107497;1259;60415;-39
2023/06/10 02:37:45;;;;;;;9.70;7.40;;;;;;;18.49;63.38;99218.80;107550;1253;60349;-39
2023/06/10 02:40:12;;;;;;;10.70;7.50;;;;;;;18.49;63.68;99216.05;107383;1253;73918;-39
2023/06/10 02:42:40;;;;;;;9.90;8.20;;;;;;;18.51;63.66;99215.71;107541;1254;66476;-39
2023/06/10 02:45:08;;;;;;;11.70;7.90;;;;;;;18.51;63.53;99212.80;107483;1254;72657;-39
2023/06/10 02:47:40;;;;;;;11.00;8.00;;;;;;;18.51;63.72;99210.92;107536;1254;60935;-39
2023/06/10 02:50:08;;;;;;;13.00;7.20;;;;;;;18.50;63.46;99214.08;107490;1254;60350;-39
2023/06/10 02:52:41;;;;;;;10.50;7.30;;;;;;;18.53;63.32;99213.18;107306;1255;73208;-39
2023/06/10 02:55:11;;;;;;;11.60;7.90;;;;;;;18.59;63.00;99213.65;107238;1253;66675;-39
2023/06/10 02:57:50;;;;;;;11.00;7.40;;;;;;;18.62;62.82;99213.45;107042;1255;71136;-41
2023/06/10 03:00:20;;;;;;;11.70;7.50;;;;;;;18.66;62.47;99218.48;107240;1255;61631;-39
2023/06/10 03:02:49;;;;;;;13.30;7.90;;;;;;;18.69;62.18;99219.30;107314;1259;61175;-39
2023/06/10 03:05:18;;;;;;;11.20;7.80;;;;;;;18.72;62.20;99219.26;107242;1256;74186;-39
2023/06/10 03:07:47;;;;;;;11.20;8.10;;;;;;;18.74;62.25;99221.27;107221;1256;67624;-39
2023/06/10 03:10:15;;;;;;;11.90;7.60;;;;;;;18.76;62.18;99222.88;107168;1262;72704;-40
2023/06/10 03:12:43;;;;;;;10.80;7.30;;;;;;;18.77;62.43;99224.59;107262;1254;60533;-41
2023/06/10 03:15:13;;;;;;;10.50;7.80;;;;;;;18.84;62.75;99226.67;107242;1261;59301;-39
2023/06/10 03:17:41;;;;;;;11.00;7.50;;;;;;;18.88;62.87;99227.22;107207;1253;72792;-39
2023/06/10 03:20:10;;;;;;;13.50;8.20;;;;;;;18.90;62.97;99225.79;107241;1258;66683;-40
2023/06/10 03:22:39;;;;;;;9.20;7.50;;;;;;;18.91;62.88;99221.30;109106;1256;71489;-40
2023/06/10 03:25:13;;;;;;;9.80;8.20;;;;;;;18.92;62.83;99226.55;109135;1253;59117;-40
2023/06/10 03:27:44;;;;;;;11.00;7.90;;;;;;;18.91;62.86;99228.13;109141;1253;59977;-40
2023/06/10 03:30:13;;;;;;;11.70;7.40;;;;;;;18.89;63.08;99227.83;107824;1259;74344;-39
2023/06/10 03:32:41;;;;;;;9.40;7.50;;;;;;;18.92;62.69;99226.84;108537;1253;67613;-40
2023/06/10 03:35:10;;;;;;;9.10;7.60;;;;;;;18.96;62.40;99228.73;107279;1256;72687;-39
2023/06/10 03:37:38;;;;;;;9.30;7.20;;;;;;;18.98;62.12;99228.86;107155;1253;223122;-39
2023/06/10 03:41:04;;;;;;;12.40;8.10;;;;;;;19.02;61.89;99226.27;104224;1292;600749;-40
2023/06/10 03:43:33;;;;;;;11.60;7.90;;;;;;;19.02;61.99;99228.80;106610;1269;59235;-39
2023/06/10 03:46:01;;;;;;;9.80;7.10;;;;;;;19.02;62.17;99227.30;106479;1267;59259;-38
2023/06/10 03:48:30;;;;;;;9.80;8.20;;;;;;;19.04;61.80;99225.14;106436;1270;72312;-38
2023/06/10 03:50:58;;;;;;;8.60;7.30;;;;;;;19.05;61.69;99226.86;106979;1260;66325;-39
2023/06/10 03:53:26;;;;;;;13.70;7.50;;;;;;;19.10;61.55;99225.91;106928;1261;72663;-39
2023/06/10 03:55:53;;;;;;;9.40;8.00;;;;;;;19.16;61.45;99224.05;106845;1262;219336;-39
2023/06/10 03:58:22;;;;;;;9.00;7.40;;;;;;;19.21;61.35;99224.29;107193;1257;59295;-39
2023/06/10 04:00:50;;;;;;;9.60;7.90;;;;;;;19.25;61.41;99224.05;106977;1257;71057;-39
2023/06/10 04:03:17;;;;;;;11.30;7.70;;;;;;;19.29;61.37;99225.94;107074;1257;68317;-39
2023/06/10 04:05:50;;;;;;;11.70;7.50;;;;;;;19.34;61.40;99224.20;107044;1257;72677;-40
2023/06/10 04:08:17;;;;;;;10.60;7.80;;;;;;;19.40;61.29;99227.23;107002;1257;59723;-40
2023/06/10 04:10:49;;;;;;;8.60;7.20;;;;;;;19.42;60.81;99222.09;107069;1257;60012;-40
2023/06/10 04:13:19;;;;;;;10.90;7.40;;;;;;;19.44;60.73;99221.91;106948;1258;75481;-40
2023/06/10 04:15:55;;;;;;;11.30;7.30;;;;;;;19.47;60.70;99222.17;107065;1260;66625;-40
2023/06/10 04:18:23;;;;;;;11.90;7.30;;;;;;;19.56;60.54;99218.86;107049;1260;72493;-40
2023/06/10 04:20:55;;;;;;;8.50;7.00;;;;;;;19.62;60.36;99223.94;106944;1257;62789;-40
2023/06/10 04:23:23;;;;;;;10.60;7.20;;;;;;;19.65;60.33;99227.33;107024;1261;60037;-40
2023/06/10 04:25:56;;;;;;;10.80;7.40;;;;;;;19.68;60.14;99225.48;107040;1258;71866;-43
2023/06/10 04:28:30;;;;;;;9.80;7.20;;;;;;;19.71;59.85;99228.47;106951;1260;69465;-40
2023/06/10 04:30:59;;;;;;;10.20;7.00;;;;;;;19.73;59.77;99225.14;106842;1257;72807;-40
2023/06/10 04:33:28;;;;;;;12.20;7.10;;;;;;;19.75;59.42;99225.55;106875;1258;59433;-40
2023/06/10 04:35:57;;;;;;;8.70;7.10;;;;;;;19.79;59.33;99229.48;106907;1265;60018;-40
2023/06/10 04:38:26;;;;;;;9.80;7.60;;;;;;;19.84;59.44;99232.83;107014;1258;73071;-40
2023/06/10 04:40:54;;;;;;;8.90;7.20;;;;;;;19.90;59.31;99236.25;107005;1257;66835;-40
2023/06/10 04:43:22;;;;;;;10.60;7.50;;;;;;;19.95;59.13;99236.21;106987;1263;71510;-40
2023/06/10 04:45:50;;;;;;;9.50;6.80;;;;;;;20.01;59.22;99236.16;107022;1260;59627;-40
2023/06/10 04:48:18;;;;;;;10.80;6.60;;;;;;;20.08;58.99;99236.34;106915;1257;60140;-39
2023/06/10 04:50:47;;;;;;;8.00;6.50;;;;;;;20.18;58.63;99239.56;107073;1258;71790;-40
2023/06/10 04:53:16;;;;;;;8.80;6.90;;;;;;;20.27;58.35;99236.55;107001;1260;66642;-39
2023/06/10 04:55:46;;;;;;;9.40;7.30;;;;;;;20.38;57.79;99242.55;106880;1260;73193;-40
2023/06/10 04:58:14;;;;;;;12.40;7.50;;;;;;;20.46;57.17;99243.46;106960;1260;59698;-40
2023/06/10 05:00:43;;;;;;;8.40;7.00;;;;;;;20.52;57.00;99242.30;106967;1257;60031;-40
2023/06/10 05:03:11;;;;;;;10.90;7.40;;;;;;;20.57;56.63;99239.90;106972;1260;73087;-41
2023/06/10 05:05:41;;;;;;;10.80;6.80;;;;;;;20.62;56.82;99239.23;107114;1257;68075;-40
2023/06/10 05:08:20;;;;;;;8.80;7.00;;;;;;;20.69;56.34;99238.13;107432;1257;71463;-40
2023/06/10 05:11:13;;;;;;;8.70;7.20;;;;;;;20.76;56.59;99235.59;107155;1260;59630;-39
2023/06/10 05:13:42;;;;;;;9.80;7.30;;;;;;;20.80;56.46;99235.56;107090;1257;60108;-39
2023/06/10 05:16:10;;;;;;;8.30;6.80;;;;;;;20.87;56.43;99233.66;106914;1258;73115;-39
2023/06/10 05:18:37;;;;;;;8.60;7.20;;;;;;;20.94;56.27;99235.47;106999;1259;68058;-40
2023/06/10 05:21:05;;;;;;;10.00;7.20;;;;;;;21.01;56.37;99233.39;107014;1263;72664;-40
2023/06/10 05:23:32;;;;;;;9.40;6.70;;;;;;;21.08;55.52;99231.38;107034;1263;59336;-40
2023/06/10 05:26:00;;;;;;;11.60;7.00;;;;;;;21.14;55.55;99230.39;107047;1260;60058;-39
2023/06/10 05:28:28;;;;;;;8.80;7.00;;;;;;;21.18;55.68;99233.36;107035;1260;73492;-40
2023/06/10 05:30:55;;;;;;;11.60;7.10;;;;;;;21.25;55.63;99227.28;107046;1259;66357;-39
2023/06/10 05:33:23;;;;;;;10.00;6.60;;;;;;;21.33;55.52;99231.64;107066;1263;72755;-40
2023/06/10 05:35:51;;;;;;;9.90;6.80;;;;;;;21.40;55.45;99226.40;107023;1260;59630;-39
2023/06/10 05:38:18;;;;;;;13.90;7.20;;;;;;;21.48;55.69;99231.87;107035;1257;59241;-39
2023/06/10 05:40:46;;;;;;;9.00;6.10;;;;;;;21.57;55.75;99231.45;107036;1258;73015;-40
2023/06/10 05:43:16;;;;;;;10.30;6.70;;;;;;;21.69;55.70;99229.08;107042;1258;67609;-39
2023/06/10 05:45:44;;;;;;;;;;;;;;;21.81;54.74;99232.04;107080;1257;72977;-40
2023/06/10 05:48:12;;;;;;;10.20;6.80;;;;;;;21.86;54.91;99231.42;107064;1261;60078;-40
2023/06/10 05:50:42;;;;;;;11.00;6.30;;;;;;;21.91;54.55;99230.17;106966;1260;60026;-40
2023/06/10 05:53:14;;;;;;;8.20;6.60;;;;;;;22.02;54.67;99236.42;108926;1257;73708;-40
2023/06/10 05:55:43;;;;;;;9.90;6.40;;;;;;;22.14;54.05;99235.98;108919;1258;66313;-41
2023/06/10 05:58:12;;;;;;;10.00;6.50;;;;;;;22.23;53.25;99237.23;108925;1257;70906;-41
2023/06/10 06:00:40;;;;;;;8.20;6.40;;;;;;;22.31;52.87;99239.64;108658;1260;59815;-40
2023/06/10 06:03:09;;;;;;;9.20;7.00;;;;;;;22.39;53.24;99240.67;107054;1260;60483;-40
2023/06/10 06:05:38;;;;;;;11.20;7.00;;;;;;;22.45;53.44;99245.14;107066;1258;71745;-40
2023/06/10 06:08:05;;;;;;;9.10;6.90;;;;;;;22.52;53.93;99249.80;107025;1257;68256;-40
2023/06/10 06:10:33;;;;;;;9.90;6.40;;;;;;;22.58;54.22;99246.59;107034;1262;70706;-40
2023/06/10 06:13:01;;;;;;;11.00;6.00;;;;;;;22.65;53.97;99248.91;107663;1260;59705;-40
2023/06/10 06:15:29;;;;;;;10.40;6.80;;;;;;;22.71;53.30;99246.30;106912;1259;59614;-39
2023/06/10 06:17:57;;;;;;;11.70;6.40;;;;;;;22.74;52.61;99248.57;106918;1260;71427;-40
2023/06/10 06:20:24;;;;;;;9.30;6.40;;;;;;;22.76;52.63;99248.13;106964;1263;67884;-39
2023/06/10 06:22:52;;;;;;;7.40;6.30;;;;;;;22.77;52.57;99248.64;107030;1260;71930;-40
2023/06/10 06:25:19;;;;;;;8.60;6.50;;;;;;;22.79;53.09;99251.23;106942;1263;60503;-40
2023/06/10 06:27:47;;;;;;;7.30;6.10;;;;;;;22.83;52.93;99252.45;107074;1259;60144;-40
2023/06/10 06:30:15;;;;;;;8.60;6.90;;;;;;;22.89;53.10;99253.29;107011;1260;71484;-39
2023/06/10 06:32:42;;;;;;;9.50;6.60;;;;;;;22.94;53.60;99254.55;107029;1265;67961;-40
2023/06/10 06:35:10;;;;;;;11.40;5.90;;;;;;;22.95;53.09;99260.38;106974;1260;72647;-40
2023/06/10 06:37:38;;;;;;;7.50;6.00;;;;;;;22.92;52.87;99256.75;106972;1259;60149;-40
2023/06/10 06:40:20;;;;;;;9.10;5.90;;;;;;;22.91;52.60;99252.59;107001;1258;59305;-40
2023/06/10 06:42:47;;;;;;;7.90;5.80;;;;;;;22.91;52.30;99253.32;107032;1262;71805;-40
2023/06/10 06:45:21;;;;;;;7.50;6.10;;;;;;;22.91;51.81;99246.76;107034;1262;66626;-40
2023/06/10 06:47:49;;;;;;;7.10;6.10;;;;;;;22.90;51.56;99246.77;107156;1258;72685;-40
2023/06/10 06:50:18;;;;;;;7.70;5.50;;;;;;;22.91;51.62;99249.02;106968;1261;60078;-39
2023/06/10 06:52:46;;;;;;;10.70;5.60;;;;;;;22.96;52.02;99249.91;107053;1260;60046;-39
2023/06/10 06:55:13;;;;;;;6.90;5.80;;;;;;;23.05;52.01;99250.64;107239;1263;73102;-40
2023/06/10 06:57:41;;;;;;;8.50;5.50;;;;;;;23.18;52.22;99245.63;107056;1260;67729;-40
2023/06/10 07:00:09;;;;;;;6.90;5.10;;;;;;;23.31;51.23;99243.41;106994;1262;72653;-40
2023/06/10 07:02:37;;;;;;;9.20;5.50;;;;;;;23.43;49.37;99241.59;107042;1262;59261;-40
2023/06/10 07:05:06;;;;;;;7.00;5.10;;;;;;;23.50;49.67;99247.20;106949;1257;60534;-40
2023/06/10 07:07:35;;;;;;;6.80;5.30;;;;;;;23.58;49.98;99242.34;107055;1258;71830;-40
2023/06/10 07:10:03;;;;;;;7.80;5.10;;;;;;;23.68;50.04;99242.14;107021;1263;66636;-40
2023/06/10 07:12:30;;;;;;;5.30;4.80;;;;;;;23.78;49.02;99238.67;106883;1262;72810;-40
2023/06/10 07:14:58;;;;;;;9.10;5.10;;;;;;;23.90;49.02;99235.64;106923;1260;60012;-40
2023/06/10 07:17:26;;;;;;;11.20;5.20;;;;;;;24.04;49.51;99231.54;106925;1258;59516;-40
2023/06/10 07:19:57;;;;;;;6.70;5.00;;;;;;;24.21;49.93;99231.64;106998;1260;73067;-40
2023/06/10 07:22:25;;;;;;;7.40;4.70;;;;;;;24.39;50.24;99233.48;107019;1258;69075;-40
2023/06/10 07:24:54;;;;;;;5.60;4.70;;;;;;;24.54;49.80;99231.93;107063;1262;72732;-40
2023/06/10 07:27:22;;;;;;;6.80;4.60;;;;;;;24.69;49.42;99230.13;107050;1260;60654;-40
2023/06/10 07:29:50;;;;;;;6.80;4.60;;;;;;;24.86;48.89;99233.17;107048;1261;60100;-40
2023/06/10 07:32:20;;;;;;;9.00;4.80;;;;;;;25.04;47.77;99231.25;107053;1260;71846;-40
2023/06/10 07:34:48;;;;;;;;;;;;;;;25.17;47.18;99231.94;107080;1263;67605;-40
2023/06/10 07:37:16;;;;;;;8.80;4.90;;;;;;;25.24;46.35;99234.44;107203;1260;71067;-41
2023/06/10 07:39:44;;;;;;;5.10;4.60;;;;;;;25.29;45.51;99233.64;107150;1260;60123;-40
2023/06/10 07:42:13;;;;;;;9.90;4.80;;;;;;;25.39;46.36;99231.14;106998;1262;59497;-40
2023/06/10 07:44:41;;;;;;;9.10;4.40;;;;;;;25.51;46.68;99231.73;106938;1258;73108;-40
2023/06/10 07:47:08;;;;;;;6.00;4.40;;;;;;;25.65;45.86;99233.23;106971;1258;66815;-40
2023/06/10 07:49:36;;;;;;;8.40;4.30;;;;;;;25.75;45.18;99234.05;106941;1262;72823;-40
2023/06/10 07:52:04;;;;;;;7.30;4.30;;;;;;;25.78;44.19;99233.83;106919;1263;60939;-40
2023/06/10 07:54:32;;;;;;;8.60;4.40;;;;;;;25.70;44.01;99230.29;106951;1258;60038;-41
2023/06/10 07:57:00;;;;;;;6.40;4.80;;;;;;;25.64;43.21;99227.40;106986;1263;73973;-41
2023/06/10 07:59:29;;;;;;;6.40;4.20;;;;;;;25.63;44.03;99225.48;106981;1258;68088;-39
2023/06/10 08:01:56;;;;;;;7.50;4.20;;;;;;;25.63;45.30;99225.23;106860;1259;72743;-39
2023/06/10 08:04:24;;;;;;;8.30;4.60;;;;;;;25.66;45.45;99222.61;106946;1263;59260;-40
2023/06/10 08:06:53;;;;;;;5.00;4.40;;;;;;;25.75;45.96;99220.72;106947;1257;60334;-40
2023/06/10 08:09:22;;;;;;;7.60;4.70;;;;;;;25.84;45.76;99215.14;106960;1257;73880;-40
2023/06/10 08:11:50;;;;;;;7.10;4.50;;;;;;;25.97;45.07;99217.34;107031;1263;67910;-39
2023/06/10 08:14:18;;;;;;;7.20;4.60;;;;;;;26.03;45.53;99215.38;106942;1261;72784;-39
2023/06/10 08:16:46;;;;;;;5.40;4.80;;;;;;;26.12;45.58;99215.02;106935;1263;60424;-39
2023/06/10 08:19:13;;;;;;;8.90;4.90;;;;;;;26.24;45.89;99218.27;106993;1262;60505;-40
2023/06/10 08:21:41;;;;;;;8.80;5.10;;;;;;;26.38;44.93;99216.20;107052;1262;72599;-39
2023/06/10 08:24:09;;;;;;;8.00;4.90;;;;;;;26.47;43.70;99214.27;107001;1260;67585;-39
2023/06/10 08:26:38;;;;;;;6.60;5.00;;;;;;;26.47;43.92;99219.42;106996;1261;72022;-39
2023/06/10 08:29:06;;;;;;;7.00;4.70;;;;;;;26.49;44.90;99218.21;107110;1260;60463;-39
2023/06/10 08:31:34;;;;;;;8.60;5.10;;;;;;;26.59;44.61;99221.13;107077;1261;60490;-39
2023/06/10 08:34:02;;;;;;;5.90;4.90;;;;;;;26.66;44.13;99212.93;107019;1260;73905;-40
2023/06/10 08:36:29;;;;;;;7.30;4.40;;;;;;;26.75;44.27;99215.35;107055;1261;68078;-40
2023/06/10 08:38:57;;;;;;;6.20;4.80;;;;;;;26.80;43.08;99212.48;107038;1261;72765;-39
2023/06/10 08:41:26;;;;;;;9.20;4.50;;;;;;;26.79;42.38;99213.23;107029;1260;59769;-39
2023/06/10 08:44:11;;;;;;;7.60;4.40;;;;;;;26.77;42.86;99213.69;107196;1262;60629;-39
2023/06/10 08:46:38;;;;;;;6.30;4.20;;;;;;;26.74;42.44;99212.39;107037;1264;74375;-39
2023/06/10 08:49:10;;;;;;;5.60;4.40;;;;;;;26.72;43.13;99211.36;107051;1263;67608;-39
2023/06/10 08:51:37;;;;;;;7.00;4.30;;;;;;;26.77;42.88;99214.24;107006;1257;72759;-40
2023/06/10 08:54:25;;;;;;;5.80;4.00;;;;;;;26.83;41.77;99214.95;107007;1258;60418;-41
2023/06/10 08:56:54;;;;;;;7.30;4.00;;;;;;;26.90;41.45;99215.11;107269;1257;60453;-40
2023/06/10 08:59:21;;;;;;;7.40;4.10;;;;;;;26.93;40.75;99213.24;107076;1258;72648;-40
2023/06/10 09:01:49;;;;;;;4.80;3.70;;;;;;;26.97;40.97;99213.83;106965;1257;67714;-40
2023/06/10 09:04:17;;;;;;;4.50;3.70;;;;;;;27.00;40.78;99214.85;107045;1261;72969;-40
2023/06/10 09:06:46;;;;;;;5.70;3.80;;;;;;;27.04;41.93;99212.81;106925;1263;60620;-40
2023/06/10 09:09:14;;;;;;;9.60;4.30;;;;;;;27.08;41.21;99204.71;107008;1258;60112;-40
2023/06/10 09:11:42;;;;;;;10.40;4.30;;;;;;;27.08;40.94;99211.02;106911;1257;74239;-40
2023/06/10 09:14:11;;;;;;;9.50;4.30;;;;;;;27.06;41.50;99207.70;107001;1265;67700;-40
2023/06/10 09:16:39;;;;;;;13.80;4.80;;;;;;;27.04;41.31;99210.80;107029;1257;72303;-40
2023/06/10 09:19:10;;;;;;;8.60;4.40;;;;;;;27.04;42.10;99210.34;106986;1257;60392;-40
2023/06/10 09:21:39;;;;;;;8.50;4.30;;;;;;;27.06;42.28;99212.77;106837;1260;60482;-41
2023/06/10 09:24:07;;;;;;;5.90;4.50;;;;;;;27.10;42.72;99211.31;107055;1264;73919;-41
2023/06/10 09:26:35;;;;;;;7.50;3.90;;;;;;;27.14;42.29;99210.70;107072;1257;67727;-42
2023/06/10 09:29:04;;;;;;;5.40;4.10;;;;;;;27.18;41.64;99207.95;107085;1263;72690;-41
2023/06/10 09:31:34;;;;;;;5.30;3.80;;;;;;;27.24;41.97;99208.21;107118;1260;60381;-41
2023/06/10 09:34:07;;;;;;;5.60;4.20;;;;;;;27.33;41.19;99215.01;107100;1257;60296;-41
2023/06/10 09:36:35;;;;;;;11.40;4.30;;;;;;;27.44;41.08;99207.13;107097;1257;73114;-41
2023/06/10 09:39:03;;;;;;;8.40;4.60;;;;;;;27.55;41.56;99208.67;107100;1264;67890;-41
2023/06/10 09:41:40;;;;;;;5.40;4.20;;;;;;;27.69;40.61;99203.77;107093;1263;72674;-41
2023/06/10 09:44:18;;;;;;;6.10;4.20;;;;;;;27.82;39.84;99204.44;107044;1260;60521;-41
2023/06/10 09:46:47;;;;;;;7.80;4.30;;;;;;;27.85;39.95;99205.73;107057;1260;60326;-41
2023/06/10 09:49:16;;;;;;;7.50;4.30;;;;;;;27.84;40.12;99202.88;107086;1258;73848;-41
2023/06/10 09:51:51;;;;;;;5.40;4.20;;;;;;;27.90;40.87;99198.77;107089;1263;66838;-40
2023/06/10 09:54:20;;;;;;;4.40;4.00;;;;;;;27.99;41.02;99188.88;107036;1263;72831;-40
2023/06/10 09:56:48;;;;;;;5.20;4.20;;;;;;;28.05;40.11;99193.48;107033;1257;60398;-45
2023/06/10 09:59:31;;;;;;;6.80;4.40;;;;;;;28.02;40.17;99189.40;106919;1260;62128;-42
2023/06/10 10:02:00;;;;;;;5.30;4.00;;;;;;;27.99;40.59;99186.70;106947;1260;73931;-42
2023/06/10 10:04:28;;;;;;;6.50;3.90;;;;;;;28.02;40.89;99188.13;107016;1260;67756;-39
2023/06/10 10:06:59;;;;;;;6.80;4.10;;;;;;;28.08;40.51;99189.55;106963;1263;72726;-41
2023/06/10 10:09:27;;;;;;;5.70;3.80;;;;;;;28.12;40.40;99187.85;106883;1261;60432;-39
2023/06/10 10:11:55;;;;;;;4.90;4.30;;;;;;;28.13;39.78;99190.70;106862;1257;60332;-39
2023/06/10 10:14:23;;;;;;;6.50;4.10;;;;;;;28.13;39.73;99186.55;106930;1257;71557;-40
2023/06/10 10:16:50;;;;;;;8.00;4.00;;;;;;;28.16;39.84;99183.50;106921;1264;67581;-39
2023/06/10 10:19:23;;;;;;;5.50;3.80;;;;;;;28.22;39.78;99181.33;106939;1260;72719;-40
2023/06/10 10:21:57;;;;;;;7.90;4.40;;;;;;;28.31;40.02;99177.25;106952;1259;60489;-40
2023/06/10 10:24:34;;;;;;;7.40;4.20;;;;;;;28.42;40.06;99176.70;107155;1260;60286;-40
2023/06/10 10:27:06;;;;;;;7.00;4.50;;;;;;;28.55;39.70;99179.13;107066;1260;72746;-40
2023/06/10 10:29:38;;;;;;;5.40;4.20;;;;;;;28.62;39.18;99180.27;106982;1259;66643;-39
2023/06/10 10:32:09;;;;;;;6.50;4.20;;;;;;;28.63;39.43;99179.38;106867;1257;71314;-39
2023/06/10 10:34:43;;;;;;;7.00;4.10;;;;;;;28.70;39.15;99175.23;106907;1264;60869;-41
2023/06/10 10:37:10;;;;;;;8.20;4.20;;;;;;;28.82;38.62;99179.97;107066;1257;60345;-39
2023/06/10 10:39:38;;;;;;;6.20;4.20;;;;;;;28.94;38.15;99175.54;107067;1263;74243;-40
2023/06/10 10:42:09;;;;;;;4.00;3.50;;;;;;;29.03;36.70;99174.27;106997;1257;67950;-40
2023/06/10 10:44:39;;;;;;;6.20;4.00;;;;;;;29.10;36.49;99171.98;106941;1261;71819;-40
2023/06/10 10:47:10;;;;;;;7.00;4.20;;;;;;;29.20;36.92;99169.59;106970;1260;60301;-40
2023/06/10 10:49:38;;;;;;;6.90;4.10;;;;;;;29.33;36.88;99170.16;107027;1260;60024;-40
2023/06/10 10:52:10;;;;;;;9.80;3.80;;;;;;;29.47;35.55;99164.89;106926;1261;74249;-40
2023/06/10 10:54:38;;;;;;;8.50;3.70;;;;;;;29.60;36.62;99163.73;106943;1265;67757;-40
2023/06/10 10:57:08;;;;;;;5.70;3.90;;;;;;;29.70;37.00;99160.49;107032;1263;71732;-40
2023/06/10 11:00:04;;;;;;;5.60;4.00;;;;;;;29.75;35.81;99158.80;107036;1264;60323;-40
2023/06/10 11:02:33;;;;;;;4.50;3.90;;;;;;;29.68;36.30;99156.45;107023;1259;60489;-40
2023/06/10 11:05:01;;;;;;;4.80;3.50;;;;;;;29.63;36.57;99155.64;106980;1260;73852;-39
2023/06/10 11:07:31;;;;;;;6.60;4.20;;;;;;;29.59;36.92;99155.09;106885;1260;66287;-40
2023/06/10 11:10:03;;;;;;;8.10;4.00;;;;;;;29.58;36.86;99150.82;107007;1259;72717;-40
2023/06/10 11:12:52;;;;;;;8.00;4.00;;;;;;;29.55;36.61;99151.98;107007;1260;60441;-40
2023/06/10 11:15:27;;;;;;;5.60;3.90;;;;;;;29.66;36.90;99149.83;107073;1261;60356;-40
2023/06/10 11:18:19;;;;;;;6.10;4.10;;;;;;;29.77;36.77;99152.67;106921;1261;73911;-40
2023/06/10 11:20:50;;;;;;;8.40;4.20;;;;;;;29.82;35.88;99157.43;106918;1258;67589;-40
2023/06/10 11:23:27;;;;;;;4.80;3.60;;;;;;;29.75;35.63;99153.56;107025;1258;72692;-39
2023/06/10 11:26:11;;;;;;;9.00;4.10;;;;;;;29.61;35.62;99155.33;107178;1257;60312;-40
2023/06/10 11:28:40;;;;;;;5.70;3.90;;;;;;;29.45;36.62;99161.16;107035;1258;60389;-39
2023/06/10 11:31:27;;;;;;;5.20;3.90;;;;;;;29.47;37.54;99160.58;107017;1258;74071;-40
2023/06/10 11:34:04;;;;;;;5.50;3.80;;;;;;;29.67;37.78;99146.39;107047;1257;67744;-40
2023/06/10 11:36:34;;;;;;;5.30;3.90;;;;;;;29.91;37.43;99140.14;107027;1261;73150;-40